Sierra Vista, AZ

11:37 AM MST on February 10, 2016 (GMT -0700)
Coronado Drive & Avenida Cochise | | Change Station
CLOSE
Current Station
Personal Weather Station
Location: Sierra Vista, AZ
Elevation: 4616 ft
Nearby Weather Stations

Elev 4616 ft 31.53 °N, 110.28 °W | Updated 1 minute ago

Clear
Clear
69.4 °F
Feels Like 69.4 °F
N
6.0
Wind Variable Wind from ENE
Gusts 6.0 mph

Today
High -- | Low -- °F
--% Chance of Precip.
Yesterday
High -- | Low -- °F
Precip. -- in
Pressure 30.27 in
Visibility 9.0 miles
Clouds Clear
Dew Point 10 °F
Humidity 10%
Rainfall 0.00 in
Snow Depth Not available.
7:07 AM 6:03 PM
Waxing Crescent, 6% visible
METAR KFHU 101758Z AUTO 08004KT 9SM CLR 18/M10 A3038 RMK AO2 SLP250 T01771097 10177 20042 50006
Pressure 30.27 in
Visibility 9.0 miles
Clouds Clear
Dew Point 10 °F
Humidity 10%
Rainfall 0.00 in
Snow Depth Not available.
7:07 AM 6:03 PM
Waxing Crescent, 6% visible
METAR KFHU 101758Z AUTO 08004KT 9SM CLR 18/M10 A3038 RMK AO2 SLP250 T01771097 10177 20042 50006

10-Day Weather Forecast

Almanac

Astronomy

Feb. 10, 2016 Rise Set
Actual Time
Civil Twilight
Nautical Twilight
Astronomical Twilight
Moon
Length of Visible Light
Length of Day
Tomorrow will be .
, % of the Moon is Illuminated

Today's Extremes

State Highs State Lows

Community

WunderPhotos

Upload Photos

1,891,914 photos uploaded!

WunderBlog® & News

Nearby

Air Quality

  Air Quality AQ Index Pollutant
Not available.

Snow Depth

Station Depth Elevation

Earthquake Activity

City Distance Mag. Time & Date
Minimum magnitude displayed is 2.5.

Coastal Water Temperatures

Place Temperature

Stations

Nearby Weather Stations

Station Location Temp. Windchill Dew Point Humidity Wind Precip. Elev Updated Type
                   

Watches & Warnings

There are currently no watches in effect.